Time;durP1;ratioP1;P1;durP2;ratioP2;P2;SDS_P1;SDS_P2;PMS_P1;PMS_P2;Temp;Humidity;BMP_temperature;BMP_pressure;BME280_temperature;BME280_humidity;BME280_pressure;Samples;Min_cycle;Max_cycle;Signal;HPM_P1;HPM_P2
2023/08/31 00:01:00;;;;;;;;;;;;;;;10.88;100.00;100786.59;5030572;28;19928;-73
2023/08/31 00:03:26;;;;;;;;;;;;;;;10.80;100.00;100779.16;5026885;28;19921;-73
2023/08/31 00:05:51;;;;;;;;;;;;;;;10.80;100.00;100785.38;5035280;28;19967;-73
2023/08/31 00:08:17;;;;;;;;;;;;;;;10.70;100.00;100776.34;5028641;28;20303;-73
2023/08/31 00:10:42;;;;;;;;;;;;;;;10.76;100.00;100778.53;5029815;28;20015;-73
2023/08/31 00:13:07;;;;;;;;;;;;;;;10.77;100.00;100780.25;5016379;28;19925;-72
2023/08/31 00:15:35;;;;;;;;;;;;;;;10.88;100.00;100782.06;5026409;28;20215;-73
2023/08/31 00:18:00;;;;;;;;;;;;;;;10.93;100.00;100789.78;5032240;28;20324;-73
2023/08/31 00:20:26;;;;;;;;;;;;;;;10.94;100.00;100784.25;5030014;28;19920;-73
2023/08/31 00:22:51;;;;;;;;;;;;;;;10.90;100.00;100782.78;5029147;28;19921;-73
2023/08/31 00:25:17;;;;;;;;;;;;;;;10.96;100.00;100781.47;5035250;28;20517;-73
2023/08/31 00:27:42;;;;;;;;;;;;;;;10.99;100.00;100781.19;5033627;28;20318;-73
2023/08/31 00:30:11;;;;;;;;;;;;;;;10.85;100.00;100779.66;5027047;28;20035;-73
2023/08/31 00:32:36;;;;;;;;;;;;;;;10.83;100.00;100778.91;5029144;28;20476;-73
2023/08/31 00:35:03;;;;;;;;;;;;;;;10.72;100.00;100781.59;5025625;28;19921;-73
2023/08/31 00:37:28;;;;;;;;;;;;;;;10.78;100.00;100781.09;5012602;28;19928;-73
2023/08/31 00:39:54;;;;;;;;;;;;;;;10.80;100.00;100781.84;5029619;28;20038;-73
2023/08/31 00:42:19;;;;;;;;;;;;;;;10.68;100.00;100770.25;5028345;28;19921;-73
2023/08/31 00:44:46;;;;;;;;;;;;;;;10.62;100.00;100773.41;5029634;28;20412;-73
2023/08/31 00:47:12;;;;;;;;;;;;;;;10.72;100.00;100773.53;5029618;28;19920;-73
2023/08/31 00:49:37;;;;;;;;;;;;;;;10.56;100.00;100774.75;5033483;28;19951;-73
2023/08/31 00:52:02;;;;;;;;;;;;;;;10.60;100.00;100778.06;5031103;28;20216;-73
2023/08/31 00:54:27;;;;;;;;;;;;;;;10.65;100.00;100770.50;5033643;28;19921;-73
2023/08/31 00:56:53;;;;;;;;;;;;;;;10.64;100.00;100776.84;5032169;28;19976;-73
2023/08/31 00:59:19;;;;;;;;;;;;;;;10.67;100.00;100771.22;5031657;28;20026;-72
2023/08/31 01:01:53;;;;;;;;;;;;;;;10.68;100.00;100772.06;5032722;28;19916;-73
2023/08/31 01:04:37;;;;;;;;;;;;;;;10.68;100.00;100775.63;5033813;28;19921;-72
2023/08/31 01:07:08;;;;;;;;;;;;;;;10.61;100.00;100777.91;5030055;28;19920;-73
2023/08/31 01:09:52;;;;;;;;;;;;;;;10.58;100.00;100775.50;5033364;28;20321;-73
2023/08/31 01:12:47;;;;;;;;;;;;;;;10.64;100.00;100775.00;5027761;28;19979;-73
2023/08/31 01:15:12;;;;;;;;;;;;;;;10.57;100.00;100771.09;5009980;28;19928;-74
2023/08/31 01:17:42;;;;;;;;;;;;;;;10.61;100.00;100777.06;5028405;28;19946;-73
2023/08/31 01:20:11;;;;;;;;;;;;;;;10.58;100.00;100775.50;5042856;28;19925;-73
2023/08/31 01:22:36;;;;;;;;;;;;;;;10.61;100.00;100787.81;5028400;28;19951;-72
2023/08/31 01:25:04;;;;;;;;;;;;;;;10.65;100.00;100786.59;5028759;28;19921;-73
2023/08/31 01:27:32;;;;;;;;;;;;;;;10.78;100.00;100779.25;5018077;28;20336;-74
2023/08/31 01:29:57;;;;;;;;;;;;;;;10.88;100.00;100779.38;5027527;28;20086;-73
2023/08/31 01:32:23;;;;;;;;;;;;;;;10.87;100.00;100788.41;5025225;28;19952;-73
2023/08/31 01:34:50;;;;;;;;;;;;;;;10.92;100.00;100786.22;5027720;28;20560;-73
2023/08/31 01:37:16;;;;;;;;;;;;;;;10.97;100.00;100782.31;5031294;28;19924;-73
2023/08/31 01:39:59;;;;;;;;;;;;;;;10.92;100.00;100783.53;5029901;28;20439;-73
2023/08/31 01:42:24;;;;;;;;;;;;;;;11.04;100.00;100787.06;5029586;28;19966;-73
2023/08/31 01:44:49;;;;;;;;;;;;;;;11.14;100.00;100786.31;5033413;28;19920;-72
2023/08/31 01:47:15;;;;;;;;;;;;;;;11.21;100.00;100796.44;5015028;28;19921;-73
2023/08/31 01:49:41;;;;;;;;;;;;;;;11.28;100.00;100794.09;5025930;28;20054;-74
2023/08/31 01:52:06;;;;;;;;;;;;;;;11.27;100.00;100797.78;5009648;28;19925;-73
2023/08/31 01:54:32;;;;;;;;;;;;;;;11.44;100.00;100799.06;5023474;28;19932;-73
2023/08/31 01:56:57;;;;;;;;;;;;;;;11.47;100.00;100800.69;5032069;28;20597;-73
2023/08/31 01:59:22;;;;;;;;;;;;;;;11.45;100.00;100792.72;5027955;28;19951;-73
2023/08/31 02:01:48;;;;;;;;;;;;;;;11.54;100.00;100794.66;5028589;28;19988;-73
2023/08/31 02:04:13;;;;;;;;;;;;;;;11.62;100.00;100795.88;5012940;28;20371;-72
2023/08/31 02:06:38;;;;;;;;;;;;;;;11.60;100.00;100797.81;5017538;28;21172;-73
2023/08/31 02:09:03;;;;;;;;;;;;;;;11.44;100.00;100788.31;5011444;28;20375;-72
2023/08/31 02:11:29;;;;;;;;;;;;;;;11.62;100.00;100793.19;5033616;28;19924;-73
2023/08/31 02:13:54;;;;;;;;;;;;;;;11.59;100.00;100782.69;5034124;28;19966;-72
2023/08/31 02:16:19;;;;;;;;;;;;;;;11.59;100.00;100786.19;5010777;28;20426;-73
2023/08/31 02:18:44;;;;;;;;;;;;;;;11.64;100.00;100788.53;5015625;28;20291;-73
2023/08/31 02:21:09;;;;;;;;;;;;;;;11.78;100.00;100782.00;5032737;28;20282;-73
2023/08/31 02:23:35;;;;;;;;;;;;;;;11.69;100.00;100786.28;5030523;28;20015;-73
2023/08/31 02:26:00;;;;;;;;;;;;;;;11.70;100.00;100788.88;5033108;28;19964;-74
2023/08/31 02:28:25;;;;;;;;;;;;;;;11.72;100.00;100777.97;5019477;28;20039;-72
2023/08/31 02:30:57;;;;;;;;;;;;;;;11.80;100.00;100782.69;5018850;28;19962;-74
2023/08/31 02:33:22;;;;;;;;;;;;;;;11.91;100.00;100784.50;5009965;28;19924;-72
2023/08/31 02:35:47;;;;;;;;;;;;;;;11.97;100.00;100786.66;5010423;28;19982;-73
2023/08/31 02:38:13;;;;;;;;;;;;;;;12.06;100.00;100783.22;5029207;28;19946;-72
2023/08/31 02:40:38;;;;;;;;;;;;;;;12.08;100.00;100783.94;5037441;28;20630;-72
2023/08/31 02:43:03;;;;;;;;;;;;;;;12.10;100.00;100784.69;5030193;28;20275;-73
2023/08/31 02:45:28;;;;;;;;;;;;;;;12.14;100.00;100783.44;5025724;28;20282;-73
2023/08/31 02:47:54;;;;;;;;;;;;;;;12.19;100.00;100787.53;5030909;28;19928;-74
2023/08/31 02:50:20;;;;;;;;;;;;;;;12.21;100.00;100794.53;5035405;28;19921;-74
2023/08/31 02:52:45;;;;;;;;;;;;;;;12.23;100.00;100794.38;5028851;28;19990;-74
2023/08/31 02:55:10;;;;;;;;;;;;;;;12.19;100.00;100795.63;5029863;28;20047;-77
2023/08/31 02:57:35;;;;;;;;;;;;;;;12.20;100.00;100795.50;5016096;28;19925;-74
2023/08/31 03:00:01;;;;;;;;;;;;;;;12.19;100.00;100787.53;5030982;28;19921;-74
2023/08/31 03:02:26;;;;;;;;;;;;;;;12.15;100.00;100786.97;5030631;28;20531;-72
2023/08/31 03:04:51;;;;;;;;;;;;;;;12.14;100.00;100787.94;5032885;28;20175;-74
2023/08/31 03:07:17;;;;;;;;;;;;;;;12.03;100.00;100786.19;5033103;28;19963;-75
2023/08/31 03:09:43;;;;;;;;;;;;;;;11.98;100.00;100789.22;5030157;28;19925;-74
2023/08/31 03:12:08;;;;;;;;;;;;;;;12.03;100.00;100788.88;5018029;28;20296;-73
2023/08/31 03:14:33;;;;;;;;;;;;;;;12.02;100.00;100789.84;5034008;28;20355;-73
2023/08/31 03:16:58;;;;;;;;;;;;;;;12.02;100.00;100794.38;5030846;28;20343;-74
2023/08/31 03:19:24;;;;;;;;;;;;;;;11.96;100.00;100793.03;5032922;28;20278;-73
2023/08/31 03:21:49;;;;;;;;;;;;;;;11.91;100.00;100788.03;5017433;28;20047;-73
2023/08/31 03:24:15;;;;;;;;;;;;;;;11.78;100.00;100788.22;5032966;28;19925;-75
2023/08/31 03:26:40;;;;;;;;;;;;;;;11.82;100.00;100791.50;5016299;28;19928;-74
2023/08/31 03:29:05;;;;;;;;;;;;;;;11.91;100.00;100785.34;5031899;28;20111;-73
2023/08/31 03:31:31;;;;;;;;;;;;;;;11.84;100.00;100782.31;5014933;28;19921;-73
2023/08/31 03:33:56;;;;;;;;;;;;;;;11.87;100.00;100781.19;5032853;28;20290;-74
2023/08/31 03:36:21;;;;;;;;;;;;;;;11.83;100.00;100786.00;5012548;28;20368;-73
2023/08/31 03:38:47;;;;;;;;;;;;;;;11.63;100.00;100789.50;5032986;28;20441;-73
2023/08/31 03:41:12;;;;;;;;;;;;;;;11.59;100.00;100791.59;5029884;28;19927;-73
2023/08/31 03:43:37;;;;;;;;;;;;;;;11.62;100.00;100790.50;5017364;28;19917;-73
2023/08/31 03:46:03;;;;;;;;;;;;;;;11.55;100.00;100793.69;5015162;28;20517;-73
2023/08/31 03:48:28;;;;;;;;;;;;;;;11.63;100.00;100790.34;5015114;28;19926;-75
2023/08/31 03:50:53;;;;;;;;;;;;;;;11.45;100.00;100792.72;5011959;28;20028;-75
2023/08/31 03:53:19;;;;;;;;;;;;;;;11.50;100.00;100795.88;5026304;28;19921;-73
2023/08/31 03:55:44;;;;;;;;;;;;;;;11.55;100.00;100791.00;5027930;28;20062;-73
2023/08/31 03:58:09;;;;;;;;;;;;;;;11.52;100.00;100795.78;5032199;28;20294;-74
2023/08/31 04:00:34;;;;;;;;;;;;;;;11.48;100.00;100795.16;5014542;28;20286;-74
2023/08/31 04:02:59;;;;;;;;;;;;;;;11.38;100.00;100792.38;5031403;28;20352;-74
2023/08/31 04:05:25;;;;;;;;;;;;;;;11.24;100.00;100796.19;5033155;28;20371;-73
2023/08/31 04:07:50;;;;;;;;;;;;;;;11.29;100.00;100792.28;5031805;28;20473;-73
2023/08/31 04:10:15;;;;;;;;;;;;;;;11.23;100.00;100796.34;5027110;28;19935;-74
2023/08/31 04:12:42;;;;;;;;;;;;;;;11.12;100.00;100802.59;5029886;28;19964;-75
2023/08/31 04:15:08;;;;;;;;;;;;;;;11.10;100.00;100800.00;5030395;28;20000;-74
2023/08/31 04:17:33;;;;;;;;;;;;;;;11.06;100.00;100797.69;5030356;28;20015;-74
2023/08/31 04:19:58;;;;;;;;;;;;;;;11.04;100.00;100805.03;5015787;28;19946;-75
2023/08/31 04:22:23;;;;;;;;;;;;;;;11.14;100.00;100808.66;5035655;28;19929;-73
2023/08/31 04:24:49;;;;;;;;;;;;;;;11.04;100.00;100811.25;5019931;28;19960;-74
2023/08/31 04:27:14;;;;;;;;;;;;;;;10.95;100.00;100814.69;5030582;28;20580;-74
2023/08/31 04:29:39;;;;;;;;;;;;;;;10.97;100.00;100820.78;5044369;28;20845;-74
2023/08/31 04:32:05;;;;;;;;;;;;;;;10.98;100.00;100821.63;5028617;28;20413;-74
2023/08/31 04:34:30;;;;;;;;;;;;;;;11.03;100.00;100820.28;5033078;28;19925;-75
2023/08/31 04:36:55;;;;;;;;;;;;;;;10.99;100.00;100826.03;5034030;28;19969;-73
2023/08/31 04:39:20;;;;;;;;;;;;;;;11.01;100.00;100829.44;5029287;28;19924;-74
2023/08/31 04:41:45;;;;;;;;;;;;;;;10.90;100.00;100833.00;5031573;28;20409;-73
2023/08/31 04:44:11;;;;;;;;;;;;;;;10.78;100.00;100821.41;5029575;28;20179;-74
2023/08/31 04:46:36;;;;;;;;;;;;;;;10.75;100.00;100829.69;5037898;28;19979;-74
2023/08/31 04:49:01;;;;;;;;;;;;;;;10.72;100.00;100836.16;5034115;28;19928;-73
2023/08/31 04:51:27;;;;;;;;;;;;;;;10.73;100.00;100840.53;5031013;28;19928;-73
2023/08/31 04:53:52;;;;;;;;;;;;;;;10.72;100.00;100836.16;5028982;28;19979;-74
2023/08/31 04:56:18;;;;;;;;;;;;;;;10.62;100.00;100856.66;5031646;28;20869;-74
2023/08/31 04:58:43;;;;;;;;;;;;;;;10.68;100.00;100844.56;5033209;28;19960;-73
2023/08/31 05:01:09;;;;;;;;;;;;;;;10.60;100.00;100846.00;5033041;28;20055;-73
2023/08/31 05:03:34;;;;;;;;;;;;;;;10.68;100.00;100849.94;5030208;28;20012;-74
2023/08/31 05:05:59;;;;;;;;;;;;;;;10.69;100.00;100855.19;5033406;28;20004;-74
2023/08/31 05:08:25;;;;;;;;;;;;;;;10.66;100.00;100855.44;5029156;28;19920;-75
2023/08/31 05:10:50;;;;;;;;;;;;;;;10.65;100.00;100872.53;5030354;28;19916;-74
2023/08/31 05:13:15;;;;;;;;;;;;;;;10.67;100.00;100869.69;5028165;28;20007;-75
2023/08/31 05:15:40;;;;;;;;;;;;;;;10.61;100.00;100876.41;5029542;28;20291;-74
2023/08/31 05:18:08;;;;;;;;;;;;;;;10.63;100.00;100879.84;5027274;28;20988;-76
2023/08/31 05:20:33;;;;;;;;;;;;;;;10.70;100.00;100882.91;5033644;28;20256;-74
2023/08/31 05:22:59;;;;;;;;;;;;;;;10.72;100.00;100889.88;5032187;28;19928;-74
2023/08/31 05:25:24;;;;;;;;;;;;;;;10.80;100.00;100884.75;5030972;28;19921;-73
2023/08/31 05:27:49;;;;;;;;;;;;;;;10.82;100.00;100895.38;5031690;28;19959;-74
2023/08/31 05:30:14;;;;;;;;;;;;;;;10.88;100.00;100897.56;5034164;28;20391;-73
2023/08/31 05:32:39;;;;;;;;;;;;;;;11.06;100.00;100897.94;5033833;28;19974;-74
2023/08/31 05:35:05;;;;;;;;;;;;;;;11.02;100.00;100901.84;5033595;28;19972;-74
2023/08/31 05:37:34;;;;;;;;;;;;;;;11.03;100.00;100895.50;5029064;28;20520;-75
2023/08/31 05:39:59;;;;;;;;;;;;;;;11.13;100.00;100903.69;5020624;28;19958;-75
2023/08/31 05:42:24;;;;;;;;;;;;;;;11.10;100.00;100902.09;5034215;28;20007;-74
2023/08/31 05:44:49;;;;;;;;;;;;;;;11.20;100.00;100904.91;5026884;28;19956;-74
2023/08/31 05:47:15;;;;;;;;;;;;;;;11.18;100.00;100898.81;5034401;28;19924;-74
2023/08/31 05:49:40;;;;;;;;;;;;;;;11.31;100.00;100901.38;5038039;28;19929;-73
2023/08/31 05:52:05;;;;;;;;;;;;;;;11.22;100.00;100907.50;5032233;28;19925;-74
2023/08/31 05:54:31;;;;;;;;;;;;;;;11.21;100.00;100898.56;5034374;28;19987;-74
2023/08/31 05:56:56;;;;;;;;;;;;;;;11.25;100.00;100908.09;5034227;28;20265;-72
2023/08/31 05:59:21;;;;;;;;;;;;;;;11.26;100.00;100906.25;5037998;28;20772;-73
2023/08/31 06:01:46;;;;;;;;;;;;;;;11.27;100.00;100901.75;5030121;28;20443;-72
2023/08/31 06:04:12;;;;;;;;;;;;;;;11.24;100.00;100910.94;5032293;28;19917;-74
2023/08/31 06:06:37;;;;;;;;;;;;;;;11.34;100.00;100911.88;5033312;28;19917;-73
2023/08/31 06:09:03;;;;;;;;;;;;;;;11.37;100.00;100905.41;5029526;28;19971;-74
2023/08/31 06:11:28;;;;;;;;;;;;;;;11.53;100.00;100911.25;5031769;28;20425;-73
2023/08/31 06:13:53;;;;;;;;;;;;;;;11.68;100.00;100908.28;5033079;28;19975;-73
2023/08/31 06:16:19;;;;;;;;;;;;;;;11.79;100.00;100916.34;5033578;28;19960;-75
2023/08/31 06:18:44;;;;;;;;;;;;;;;11.99;100.00;100920.13;5031023;28;20006;-74
2023/08/31 06:21:09;;;;;;;;;;;;;;;12.10;100.00;100924.63;5028712;28;20031;-76
2023/08/31 06:23:35;;;;;;;;;;;;;;;12.10;100.00;100923.75;5033791;28;20528;-73
2023/08/31 06:26:00;;;;;;;;;;;;;;;12.30;100.00;100927.47;5034530;28;20350;-73
2023/08/31 06:28:25;;;;;;;;;;;;;;;12.49;100.00;100925.91;5035920;28;19931;-72
2023/08/31 06:30:51;;;;;;;;;;;;;;;12.71;100.00;100920.41;5034405;28;19923;-73
2023/08/31 06:33:17;;;;;;;;;;;;;;;12.88;100.00;100927.03;5035035;28;19920;-73
2023/08/31 06:35:44;;;;;;;;;;;;;;;13.00;100.00;100921.59;5031076;28;19924;-72
2023/08/31 06:38:09;;;;;;;;;;;;;;;13.06;100.00;100926.44;5029385;28;19921;-74
2023/08/31 06:40:34;;;;;;;;;;;;;;;12.95;100.00;100924.69;5027389;28;19924;-74
2023/08/31 06:42:59;;;;;;;;;;;;;;;12.95;100.00;100927.38;5031202;28;20054;-72
2023/08/31 06:45:24;;;;;;;;;;;;;;;12.92;100.00;100927.66;5034883;28;20013;-73
2023/08/31 06:47:50;;;;;;;;;;;;;;;12.90;100.00;100924.22;5048576;28;20771;-73
2023/08/31 06:50:16;;;;;;;;;;;;;;;12.90;100.00;100930.44;5033468;28;20414;-73
2023/08/31 06:52:41;;;;;;;;;;;;;;;13.06;100.00;100929.16;5030502;28;20414;-77
2023/08/31 06:55:06;;;;;;;;;;;;;;;13.21;100.00;100932.34;5030194;28;20433;-75
2023/08/31 06:57:32;;;;;;;;;;;;;;;13.48;100.00;100939.00;5034748;28;19920;-76
2023/08/31 06:59:57;;;;;;;;;;;;;;;13.62;100.00;100935.94;5027655;28;20297;-75
2023/08/31 07:02:24;;;;;;;;;;;;;;;13.68;100.00;100936.38;5032863;28;19917;-74
2023/08/31 07:04:49;;;;;;;;;;;;;;;13.85;100.00;100942.97;5026942;28;20378;-73
2023/08/31 07:07:14;;;;;;;;;;;;;;;13.99;100.00;100945.25;5027854;28;19927;-74
2023/08/31 07:09:43;;;;;;;;;;;;;;;14.17;100.00;100944.59;5027753;28;19942;-72
2023/08/31 07:12:08;;;;;;;;;;;;;;;14.29;100.00;100950.69;5028980;28;20339;-74
2023/08/31 07:14:34;;;;;;;;;;;;;;;14.34;100.00;100951.09;5029276;28;20826;-75
2023/08/31 07:16:59;;;;;;;;;;;;;;;14.40;100.00;100954.13;5027779;28;20325;-73
2023/08/31 07:19:24;;;;;;;;;;;;;;;14.36;100.00;100950.00;5032326;28;19956;-74
2023/08/31 07:21:49;;;;;;;;;;;;;;;14.12;100.00;100947.69;5032276;28;19940;-75
2023/08/31 07:24:15;;;;;;;;;;;;;;;14.40;100.00;100953.25;5032253;28;19979;-74
2023/08/31 07:26:40;;;;;;;;;;;;;;;14.40;100.00;100959.53;5028636;28;20118;-74
2023/08/31 07:29:05;;;;;;;;;;;;;;;14.44;100.00;100960.06;5030821;28;19929;-73
2023/08/31 07:31:31;;;;;;;;;;;;;;;14.43;100.00;100968.34;5032593;28;19927;-74
2023/08/31 07:33:56;;;;;;;;;;;;;;;14.44;100.00;100954.66;5031105;28;19917;-75
2023/08/31 07:36:21;;;;;;;;;;;;;;;14.53;100.00;100958.38;5030892;28;20507;-74
2023/08/31 07:38:46;;;;;;;;;;;;;;;14.66;100.00;100964.34;5025960;28;20805;-74
2023/08/31 07:41:12;;;;;;;;;;;;;;;14.79;100.00;100969.50;5029544;28;20380;-76
2023/08/31 07:43:37;;;;;;;;;;;;;;;14.80;100.00;100971.19;5031395;28;20425;-74
2023/08/31 07:46:02;;;;;;;;;;;;;;;14.83;100.00;100967.34;5028541;28;20368;-75
2023/08/31 07:48:28;;;;;;;;;;;;;;;14.89;100.00;100974.00;5030153;28;20544;-74
2023/08/31 07:50:53;;;;;;;;;;;;;;;15.03;100.00;100967.28;5031467;28;20422;-74
2023/08/31 07:53:18;;;;;;;;;;;;;;;15.12;100.00;100969.13;5028016;28;20452;-75
2023/08/31 07:55:50;;;;;;;;;;;;;;;15.28;100.00;100971.22;5029134;28;22733;-74
2023/08/31 07:58:15;;;;;;;;;;;;;;;15.43;100.00;100968.91;5028310;28;19924;-76
2023/08/31 08:00:41;;;;;;;;;;;;;;;15.56;100.00;100961.28;5031560;28;19927;-74
2023/08/31 08:03:06;;;;;;;;;;;;;;;15.68;100.00;100967.34;5025208;28;19921;-74
2023/08/31 08:05:31;;;;;;;;;;;;;;;15.76;100.00;100966.59;5028067;28;19924;-74
2023/08/31 08:07:56;;;;;;;;;;;;;;;15.91;100.00;100969.69;5029953;28;19927;-75
2023/08/31 08:10:21;;;;;;;;;;;;;;;16.07;100.00;100970.88;5027274;28;19951;-74
2023/08/31 08:12:47;;;;;;;;;;;;;;;16.07;100.00;100974.44;5030429;28;19926;-74
2023/08/31 08:15:12;;;;;;;;;;;;;;;16.22;100.00;100973.91;5009277;28;19994;-74
2023/08/31 08:17:37;;;;;;;;;;;;;;;16.25;100.00;100973.63;5029050;28;20073;-74
2023/08/31 08:20:03;;;;;;;;;;;;;;;16.46;100.00;100974.16;5027621;28;20010;-74
2023/08/31 08:22:28;;;;;;;;;;;;;;;16.68;100.00;100980.09;5027408;28;20005;-74
2023/08/31 08:24:53;;;;;;;;;;;;;;;16.92;100.00;100982.19;5027427;28;19920;-72
2023/08/31 08:27:20;;;;;;;;;;;;;;;17.00;100.00;100975.13;5017292;28;19913;-73
2023/08/31 08:29:45;;;;;;;;;;;;;;;17.08;100.00;100969.75;5026994;28;20043;-74
2023/08/31 08:32:10;;;;;;;;;;;;;;;17.13;100.00;100972.84;5010921;28;19935;-75
2023/08/31 08:34:35;;;;;;;;;;;;;;;17.23;100.00;100968.16;5017884;28;20389;-75
2023/08/31 08:37:01;;;;;;;;;;;;;;;17.44;100.00;100976.94;5011035;28;19920;-75
2023/08/31 08:39:26;;;;;;;;;;;;;;;17.53;100.00;100970.53;5031670;28;19920;-75
2023/08/31 08:41:52;;;;;;;;;;;;;;;17.61;100.00;100970.56;5036607;28;19917;-75
2023/08/31 08:44:17;;;;;;;;;;;;;;;17.69;100.00;100981.47;5029975;28;19921;-74
2023/08/31 08:46:43;;;;;;;;;;;;;;;17.72;100.00;100972.16;5029056;28;20367;-79
2023/08/31 08:49:08;;;;;;;;;;;;;;;17.76;100.00;100970.78;5012078;28;19979;-74
2023/08/31 08:51:33;;;;;;;;;;;;;;;17.83;100.00;100971.84;5018686;28;20020;-80
2023/08/31 08:53:59;;;;;;;;;;;;;;;17.97;100.00;100973.06;5029510;28;20017;-74
2023/08/31 08:56:24;;;;;;;;;;;;;;;18.00;100.00;100980.09;5022899;28;20038;-75
2023/08/31 08:58:49;;;;;;;;;;;;;;;17.98;100.00;100982.09;5029759;28;19943;-72
2023/08/31 09:01:17;;;;;;;;;;;;;;;18.23;100.00;100982.19;5013954;28;20607;-75
2023/08/31 09:03:42;;;;;;;;;;;;;;;18.36;100.00;100979.81;5026502;28;20375;-76
2023/08/31 09:06:08;;;;;;;;;;;;;;;18.45;100.00;100988.81;5023970;28;19927;-76
2023/08/31 09:08:33;;;;;;;;;;;;;;;18.32;100.00;100983.88;5028161;28;19956;-73
2023/08/31 09:10:58;;;;;;;;;;;;;;;18.25;100.00;100983.72;5026939;28;19975;-80
2023/08/31 09:13:26;;;;;;;;;;;;;;;18.32;100.00;100985.75;5011920;28;20109;-74
2023/08/31 09:15:51;;;;;;;;;;;;;;;18.45;100.00;100986.09;5026672;28;19932;-73
2023/08/31 09:18:16;;;;;;;;;;;;;;;18.51;100.00;100990.88;5029316;28;19920;-77
2023/08/31 09:20:45;;;;;;;;;;;;;;;18.32;100.00;100991.19;5033129;28;19956;-79
2023/08/31 09:23:10;;;;;;;;;;;;;;;18.11;100.00;100963.47;5027954;28;20371;-77
2023/08/31 09:25:49;;;;;;;;;;;;;;;18.43;100.00;100988.16;5031590;28;19920;-73
2023/08/31 09:28:15;;;;;;;;;;;;;;;18.49;100.00;100994.81;5032153;28;20031;-75
2023/08/31 09:30:40;;;;;;;;;;;;;;;18.53;100.00;100996.16;5029586;28;20371;-77
2023/08/31 09:33:09;;;;;;;;;;;;;;;18.82;100.00;100994.78;5029098;28;19932;-73
2023/08/31 09:35:39;;;;;;;;;;;;;;;18.88;100.00;100999.56;5027522;28;20430;-75
2023/08/31 09:38:05;;;;;;;;;;;;;;;18.38;100.00;100995.97;5009143;28;20391;-73
2023/08/31 09:40:30;;;;;;;;;;;;;;;18.49;100.00;100995.63;5031496;28;19921;-75
2023/08/31 09:42:55;;;;;;;;;;;;;;;18.78;100.00;100999.72;5032968;28;19925;-73
2023/08/31 09:45:31;;;;;;;;;;;;;;;18.96;100.00;100999.59;5029435;28;20839;-77
2023/08/31 09:47:56;;;;;;;;;;;;;;;19.07;100.00;101001.13;5015854;28;19920;-76
2023/08/31 09:50:22;;;;;;;;;;;;;;;19.25;100.00;101006.38;5023653;28;19951;-78
2023/08/31 09:52:47;;;;;;;;;;;;;;;19.40;100.00;101002.91;5010538;28;19963;-76
2023/08/31 09:55:12;;;;;;;;;;;;;;;19.72;95.28;100999.28;5023904;28;19948;-75
2023/08/31 09:57:37;;;;;;;;;;;;;;;20.03;84.48;100994.91;5015002;28;20362;-75
2023/08/31 10:00:03;;;;;;;;;;;;;;;20.22;87.09;100993.59;5009383;28;20405;-73
2023/08/31 10:02:28;;;;;;;;;;;;;;;20.15;79.27;100993.44;5018106;28;20387;-76
2023/08/31 10:04:53;;;;;;;;;;;;;;;19.78;85.93;100998.53;5030799;28;19927;-75
2023/08/31 10:07:18;;;;;;;;;;;;;;;20.08;89.91;100995.22;5026700;28;19964;-73
2023/08/31 10:09:44;;;;;;;;;;;;;;;20.26;78.33;100994.09;5031009;28;20004;-74
2023/08/31 10:12:09;;;;;;;;;;;;;;;20.21;84.18;100995.47;5028133;28;19924;-74
2023/08/31 10:14:34;;;;;;;;;;;;;;;20.43;84.71;101005.75;5029194;28;19957;-78
2023/08/31 10:16:59;;;;;;;;;;;;;;;20.31;82.11;100995.22;5013691;28;20003;-73
2023/08/31 10:19:25;;;;;;;;;;;;;;;19.84;80.71;100999.72;5028337;28;19974;-74
2023/08/31 10:21:50;;;;;;;;;;;;;;;20.07;79.33;100990.78;5027434;28;20346;-76
2023/08/31 10:24:15;;;;;;;;;;;;;;;19.88;82.34;100992.06;5025562;28;20397;-73
2023/08/31 10:26:40;;;;;;;;;;;;;;;20.19;78.00;100988.50;5028349;28;20359;-78
2023/08/31 10:29:06;;;;;;;;;;;;;;;20.19;84.77;100983.06;5028119;28;20360;-71
2023/08/31 10:31:31;;;;;;;;;;;;;;;20.48;81.04;100984.22;5023374;28;19921;-76
2023/08/31 10:34:03;;;;;;;;;;;;;;;20.73;77.71;100984.03;5015671;28;19928;-78
2023/08/31 10:36:36;;;;;;;;;;;;;;;21.28;82.56;100990.19;5026314;28;21622;-76
2023/08/31 10:39:04;;;;;;;;;;;;;;;21.36;67.16;100981.06;5011460;28;19959;-76
2023/08/31 10:41:33;;;;;;;;;;;;;;;21.28;68.77;100991.06;5027964;28;19935;-71
2023/08/31 10:43:59;;;;;;;;;;;;;;;21.55;69.32;100982.38;5026342;28;20423;-76
2023/08/31 10:46:26;;;;;;;;;;;;;;;21.57;71.79;100977.59;5028013;28;19960;-74
2023/08/31 10:48:52;;;;;;;;;;;;;;;21.47;68.27;100974.28;5024882;28;19970;-76
2023/08/31 10:51:18;;;;;;;;;;;;;;;21.41;66.53;100974.03;5027489;28;20339;-77
2023/08/31 10:53:45;;;;;;;;;;;;;;;21.16;64.11;100978.88;5025025;28;20372;-76
2023/08/31 10:56:10;;;;;;;;;;;;;;;21.47;68.06;100988.78;5045542;28;19936;-76
2023/08/31 10:58:35;;;;;;;;;;;;;;;21.77;71.83;100971.56;5025565;28;19929;-74
2023/08/31 11:01:00;;;;;;;;;;;;;;;21.98;56.77;100968.03;5027073;28;21404;-76
2023/08/31 11:03:26;;;;;;;;;;;;;;;22.38;59.61;100963.00;5027719;28;19967;-76
2023/08/31 11:05:52;;;;;;;;;;;;;;;22.11;59.28;100967.34;5026049;28;20003;-75
2023/08/31 11:08:20;;;;;;;;;;;;;;;20.90;66.55;100966.50;5027116;28;19924;-74
2023/08/31 11:10:45;;;;;;;;;;;;;;;20.86;70.15;100967.91;5027095;28;19933;-73
2023/08/31 11:13:15;;;;;;;;;;;;;;;20.86;63.26;100976.09;5025205;28;19932;-74
2023/08/31 11:15:40;;;;;;;;;;;;;;;20.82;63.52;100985.69;5027126;28;19920;-75
2023/08/31 11:18:05;;;;;;;;;;;;;;;20.54;69.40;101016.22;5014414;28;19924;-72
2023/08/31 11:20:31;;;;;;;;;;;;;;;19.20;100.00;101035.97;5027292;28;19920;-78
2023/08/31 11:22:56;;;;;;;;;;;;;;;18.01;100.00;101035.25;5029639;28;19924;-75
2023/08/31 11:25:24;;;;;;;;;;;;;;;17.41;100.00;101047.81;5026247;28;19925;-75
2023/08/31 11:28:08;;;;;;;;;;;;;;;16.40;100.00;101044.38;5028413;28;19924;-75
2023/08/31 11:30:33;;;;;;;;;;;;;;;16.14;100.00;101047.81;5022821;28;19963;-75
2023/08/31 11:33:02;;;;;;;;;;;;;;;16.04;100.00;101054.13;5032550;28;19921;-73
2023/08/31 11:35:31;;;;;;;;;;;;;;;15.78;100.00;101040.38;5027542;28;20740;-76
2023/08/31 11:37:56;;;;;;;;;;;;;;;15.91;100.00;101045.50;5023682;28;19947;-73
2023/08/31 11:40:21;;;;;;;;;;;;;;;15.90;100.00;101043.78;5024031;28;20388;-73
2023/08/31 11:42:47;;;;;;;;;;;;;;;15.89;100.00;101036.69;5029043;28;19928;-73
2023/08/31 11:45:13;;;;;;;;;;;;;;;15.98;100.00;101029.50;5024143;28;20376;-73
2023/08/31 11:47:39;;;;;;;;;;;;;;;16.17;100.00;101031.25;5027896;28;19921;-74
2023/08/31 11:50:05;;;;;;;;;;;;;;;16.30;100.00;101028.16;5028479;28;19924;-73
2023/08/31 11:52:30;;;;;;;;;;;;;;;16.44;100.00;101030.38;5028109;28;20159;-73
2023/08/31 11:54:55;;;;;;;;;;;;;;;16.64;100.00;101033.78;5027250;28;19920;-73
2023/08/31 11:57:24;;;;;;;;;;;;;;;16.70;100.00;101043.16;5032521;28;19927;-74
2023/08/31 11:59:49;;;;;;;;;;;;;;;16.52;100.00;101035.00;5026910;28;20375;-73
2023/08/31 12:02:14;;;;;;;;;;;;;;;16.37;100.00;101023.84;5027955;28;19932;-73
2023/08/31 12:04:46;;;;;;;;;;;;;;;16.27;100.00;101023.91;5031406;28;19948;-74
2023/08/31 12:07:11;;;;;;;;;;;;;;;16.13;100.00;101024.44;5024573;28;19928;-74
2023/08/31 12:09:37;;;;;;;;;;;;;;;16.11;100.00;101024.59;5025038;28;19921;-74
2023/08/31 12:12:04;;;;;;;;;;;;;;;16.16;100.00;101032.25;5025638;28;19982;-74
2023/08/31 12:14:29;;;;;;;;;;;;;;;16.27;100.00;101040.16;5024393;28;19917;-74
2023/08/31 12:17:02;;;;;;;;;;;;;;;16.53;100.00;101039.44;5029183;28;19928;-74
2023/08/31 12:19:29;;;;;;;;;;;;;;;17.68;100.00;101036.78;5023531;28;19967;-74
2023/08/31 12:21:54;;;;;;;;;;;;;;;19.41;100.00;101035.44;5022981;28;20331;-75